Time;durP1;ratioP1;P1;durP2;ratioP2;P2;SDS_P1;SDS_P2;PMS_P1;PMS_P2;Temp;Humidity;BMP_temperature;BMP_pressure;BME280_temperature;BME280_humidity;BME280_pressure;Samples;Min_cycle;Max_cycle;Signal;HPM_P1;HPM_P2
2023/05/11 00:00:06;;;;;;;1.08;0.40;;;16.50;96.70;;;;;;4955738;28;20180;-72
2023/05/11 00:02:37;;;;;;;2.10;0.45;;;16.50;96.70;;;;;;4960270;28;20054;-72
2023/05/11 00:05:06;;;;;;;1.63;0.40;;;16.40;96.70;;;;;;4960868;28;20472;-72
2023/05/11 00:07:35;;;;;;;3.28;0.57;;;16.40;96.70;;;;;;4962731;28;20070;-72
2023/05/11 00:10:03;;;;;;;2.75;0.55;;;16.30;96.70;;;;;;4960479;28;20042;-72
2023/05/11 00:12:31;;;;;;;2.50;0.90;;;16.20;96.70;;;;;;4960724;28;20152;-72
2023/05/11 00:15:00;;;;;;;2.03;0.60;;;16.30;96.70;;;;;;4962163;28;20038;-72
2023/05/11 00:17:28;;;;;;;3.97;1.00;;;16.20;96.70;;;;;;4962052;28;20520;-72
2023/05/11 00:19:58;;;;;;;2.33;0.90;;;16.20;96.70;;;;;;4962612;28;20039;-72
2023/05/11 00:22:26;;;;;;;2.85;1.70;;;16.20;96.70;;;;;;4961337;28;20125;-72
2023/05/11 00:24:54;;;;;;;1.40;1.30;;;16.30;96.70;;;;;;4949057;28;20413;-72
2023/05/11 00:27:22;;;;;;;1.55;1.33;;;16.30;96.70;;;;;;4960525;28;20046;-72
2023/05/11 00:29:50;;;;;;;6.25;1.98;;;16.30;96.70;;;;;;4957863;28;20050;-72
2023/05/11 00:32:18;;;;;;;2.08;1.38;;;16.20;96.70;;;;;;4960290;28;20146;-72
2023/05/11 00:34:47;;;;;;;1.55;1.40;;;16.20;96.70;;;;;;4961428;28;20031;-73
2023/05/11 00:37:17;;;;;;;4.75;2.35;;;16.20;96.70;;;;;;4960993;28;20070;-73
2023/05/11 00:39:45;;;;;;;2.30;1.77;;;16.20;96.70;;;;;;4959565;28;20148;-72
2023/05/11 00:42:13;;;;;;;2.92;1.80;;;16.10;96.70;;;;;;4960945;28;20589;-72
2023/05/11 00:44:42;;;;;;;4.03;2.42;;;16.20;96.70;;;;;;4961062;28;20042;-72
2023/05/11 00:47:10;;;;;;;4.22;2.45;;;16.20;96.70;;;;;;4944480;28;20062;-72
2023/05/11 00:49:38;;;;;;;3.20;2.80;;;16.20;96.70;;;;;;4961849;28;20050;-72
2023/05/11 01:00:28;;;;;;;9.48;6.13;;;16.40;96.70;;;;;;4960424;28;20037;-72
2023/05/11 01:02:57;;;;;;;10.20;6.55;;;16.30;96.70;;;;;;4961719;28;20386;-72
2023/05/11 01:05:33;;;;;;;7.53;6.28;;;16.30;96.70;;;;;;4958295;28;20078;-72
2023/05/11 01:08:07;;;;;;;11.05;7.40;;;16.30;96.70;;;;;;4958525;28;20125;-72
2023/05/11 01:10:41;;;;;;;12.30;8.57;;;16.30;96.70;;;;;;4960846;28;20073;-73
2023/05/11 01:13:17;;;;;;;11.90;8.70;;;16.20;96.70;;;;;;4959539;28;20145;-72
2023/05/11 01:15:51;;;;;;;9.95;8.43;;;16.10;96.70;;;;;;4962994;28;20074;-72
2023/05/11 01:18:29;;;;;;;10.93;8.10;;;16.20;96.70;;;;;;4962066;28;20071;-72
2023/05/11 01:21:05;;;;;;;13.90;9.32;;;16.30;96.70;;;;;;4963107;28;20042;-72
2023/05/11 01:23:59;;;;;;;10.55;8.77;;;16.20;96.70;;;;;;4963306;28;20071;-73
2023/05/11 01:26:51;;;;;;;12.25;9.20;;;16.20;96.70;;;;;;4950907;28;20544;-72
2023/05/11 01:29:46;;;;;;;12.52;9.38;;;16.20;96.70;;;;;;4960764;28;20059;-72
2023/05/11 01:32:21;;;;;;;11.38;9.27;;;16.10;96.70;;;;;;4963139;28;20038;-72
2023/05/11 01:34:54;;;;;;;10.35;8.77;;;16.10;96.70;;;;;;4960524;28;20055;-73
2023/05/11 01:41:35;;;;;;;11.25;9.10;;;16.10;96.70;;;;;;4961731;28;20466;-72
2023/05/11 01:44:06;;;;;;;11.50;9.05;;;16.20;96.70;;;;;;4962251;28;20042;-72
2023/05/11 01:46:35;;;;;;;15.00;9.55;;;16.10;96.70;;;;;;4963722;28;20066;-72
2023/05/11 01:49:08;;;;;;;11.32;9.05;;;16.10;96.70;;;;;;4962554;28;20043;-72
2023/05/11 01:51:39;;;;;;;6.95;6.15;;;16.10;96.70;;;;;;4966607;28;20053;-71
2023/05/11 02:07:13;;;;;;;3.88;2.30;;;16.00;96.70;;;;;;4963028;28;20045;-72
2023/05/11 02:09:42;;;;;;;3.97;1.75;;;15.90;96.70;;;;;;4960408;28;20090;-72
2023/05/11 02:12:11;;;;;;;4.28;1.80;;;15.90;96.70;;;;;;4959050;28;20065;-72
2023/05/11 02:14:41;;;;;;;1.85;1.30;;;15.90;96.70;;;;;;4975257;28;20049;-73
2023/05/11 02:17:10;;;;;;;6.05;3.10;;;16.00;96.70;;;;;;4964036;28;20089;-74
2023/05/11 03:18:48;;;;;;;13.50;7.10;;;15.90;96.70;;;;;;4954460;28;20045;-72
2023/05/11 03:21:21;;;;;;;12.23;8.30;;;15.60;96.70;;;;;;4961135;28;20050;-72
2023/05/11 03:23:50;;;;;;;12.13;7.50;;;15.50;96.70;;;;;;4960979;28;20054;-72
2023/05/11 03:26:21;;;;;;;11.70;7.57;;;15.60;96.70;;;;;;4962789;28;20038;-72
2023/05/11 03:54:11;;;;;;;11.80;7.43;;;15.70;96.70;;;;;;4957128;28;20033;-72
2023/05/11 03:56:40;;;;;;;11.55;7.05;;;15.60;96.70;;;;;;4961512;28;20504;-73
2023/05/11 03:59:13;;;;;;;12.05;7.63;;;15.50;96.70;;;;;;4962442;28;20950;-72
2023/05/11 04:01:42;;;;;;;12.88;7.78;;;15.60;96.70;;;;;;4977000;28;20052;-72
2023/05/11 04:08:26;;;;;;;15.48;8.20;;;15.50;96.70;;;;;;4958122;28;20057;-72
2023/05/11 04:10:56;;;;;;;14.38;8.38;;;15.40;96.70;;;;;;4957626;28;20129;-72
2023/05/11 04:13:25;;;;;;;15.75;9.23;;;15.50;96.70;;;;;;4958439;28;20154;-72
2023/05/11 04:15:53;;;;;;;15.52;8.30;;;15.50;96.70;;;;;;4958566;28;20050;-72
2023/05/11 04:18:21;;;;;;;15.50;8.75;;;15.60;96.70;;;;;;4960903;28;20386;-72
2023/05/11 04:41:58;;;;;;;13.02;7.40;;;15.60;96.70;;;;;;4960663;28;20053;-72
2023/05/11 04:44:28;;;;;;;12.73;8.15;;;15.50;96.70;;;;;;4943939;28;20101;-72
2023/05/11 04:46:56;;;;;;;17.42;8.98;;;15.50;96.70;;;;;;4962667;28;20053;-73
2023/05/11 04:49:25;;;;;;;13.75;8.00;;;15.60;96.70;;;;;;4961363;28;20051;-72
2023/05/11 04:51:53;;;;;;;13.02;8.48;;;15.60;96.70;;;;;;4963130;28;20412;-71
2023/05/11 04:54:21;;;;;;;12.63;7.70;;;15.50;96.70;;;;;;4964268;28;20067;-72
2023/05/11 04:56:49;;;;;;;11.27;7.13;;;15.50;96.70;;;;;;4963055;28;20556;-73
2023/05/11 04:59:20;;;;;;;10.38;6.82;;;15.60;96.70;;;;;;4962741;28;20053;-72
2023/05/11 05:01:48;;;;;;;11.50;7.63;;;15.70;96.70;;;;;;4964083;28;20043;-72
2023/05/11 05:04:16;;;;;;;11.18;7.35;;;15.70;96.70;;;;;;4962881;28;20039;-72
2023/05/11 05:06:44;;;;;;;9.30;6.75;;;15.70;96.70;;;;;;4963890;28;20051;-74
2023/05/11 05:09:15;;;;;;;10.38;6.50;;;15.80;96.70;;;;;;4962279;28;20069;-72
2023/05/11 05:11:43;;;;;;;9.82;6.45;;;15.90;96.70;;;;;;4963858;28;20066;-72
2023/05/11 05:14:11;;;;;;;9.27;6.05;;;15.80;96.70;;;;;;4964911;28;20043;-72
2023/05/11 05:16:41;;;;;;;9.10;5.93;;;15.80;96.70;;;;;;4963479;28;20113;-72
2023/05/11 05:19:09;;;;;;;8.00;5.65;;;15.80;96.70;;;;;;4962537;28;20047;-72
2023/05/11 05:21:39;;;;;;;7.45;5.45;;;15.80;96.70;;;;;;4964017;28;20047;-72
2023/05/11 05:24:10;;;;;;;9.98;5.95;;;15.80;96.70;;;;;;4964715;28;20505;-71
2023/05/11 05:26:38;;;;;;;7.90;5.57;;;15.80;96.70;;;;;;4962580;28;20534;-72
2023/05/11 05:29:07;;;;;;;11.40;5.40;;;15.80;96.70;;;;;;4962653;28;21119;-72
2023/05/11 05:31:36;;;;;;;7.30;4.70;;;15.70;96.70;;;;;;4966418;28;20042;-73
2023/05/11 05:34:05;;;;;;;8.65;5.95;;;15.60;96.70;;;;;;4949276;28;20047;-72
2023/05/11 05:36:34;;;;;;;7.45;5.18;;;15.70;96.70;;;;;;4976024;28;20043;-74
2023/05/11 05:39:07;;;;;;;7.28;4.63;;;15.60;96.70;;;;;;4965163;28;20057;-73
2023/05/11 05:41:35;;;;;;;7.53;4.45;;;15.70;96.70;;;;;;4959459;28;20066;-73
2023/05/11 05:44:07;;;;;;;6.18;4.32;;;15.70;96.70;;;;;;4966481;28;20046;-72
2023/05/11 05:46:35;;;;;;;6.07;4.03;;;15.70;96.70;;;;;;4965983;28;20043;-72
2023/05/11 05:49:05;;;;;;;6.80;3.63;;;15.80;96.70;;;;;;4965389;28;20544;-72
2023/05/11 05:51:34;;;;;;;5.85;3.72;;;15.70;96.70;;;;;;4963850;28;20138;-72
2023/05/11 05:54:02;;;;;;;6.22;3.45;;;15.70;96.70;;;;;;4964845;28;20518;-73
2023/05/11 05:56:33;;;;;;;5.75;3.40;;;15.70;96.70;;;;;;4958878;28;20142;-72
2023/05/11 05:59:01;;;;;;;4.68;3.53;;;15.90;96.70;;;;;;4947656;28;20386;-72
2023/05/11 06:01:30;;;;;;;7.32;3.50;;;15.80;96.70;;;;;;4962007;28;20042;-73
2023/05/11 06:03:58;;;;;;;9.20;4.05;;;15.80;96.70;;;;;;4962788;28;20053;-73
2023/05/11 06:06:28;;;;;;;5.85;3.28;;;15.80;96.70;;;;;;4962039;28;20039;-73
2023/05/11 06:08:56;;;;;;;4.18;2.67;;;15.90;96.70;;;;;;4966209;28;20065;-74
2023/05/11 06:11:25;;;;;;;4.97;3.05;;;16.00;96.70;;;;;;4964952;28;20049;-73
2023/05/11 06:13:53;;;;;;;3.25;2.45;;;16.10;96.70;;;;;;4964124;28;20049;-73
2023/05/11 06:16:21;;;;;;;5.38;2.40;;;16.10;96.70;;;;;;4948563;28;20397;-73
2023/05/11 06:18:49;;;;;;;4.88;2.83;;;16.00;96.70;;;;;;4963142;28;20059;-72
2023/05/11 06:21:17;;;;;;;5.07;2.38;;;16.00;96.70;;;;;;4965206;28;20054;-73
2023/05/11 06:23:47;;;;;;;3.47;2.05;;;16.10;96.70;;;;;;4943661;29;20050;-73
2023/05/11 06:26:15;;;;;;;2.72;1.67;;;16.20;96.70;;;;;;4962483;28;20050;-73
2023/05/11 06:28:44;;;;;;;2.70;1.60;;;16.10;96.70;;;;;;4964586;28;20141;-73
2023/05/11 06:31:14;;;;;;;2.85;1.50;;;16.00;96.70;;;;;;4963755;28;20057;-73
2023/05/11 06:33:43;;;;;;;5.00;1.23;;;16.00;96.70;;;;;;4964904;28;20079;-72
2023/05/11 06:36:20;;;;;;;3.95;1.77;;;16.10;96.70;;;;;;4963222;28;20054;-73
2023/05/11 06:38:49;;;;;;;4.72;2.28;;;16.20;96.70;;;;;;4962831;28;20556;-72
2023/05/11 06:41:18;;;;;;;5.65;3.33;;;16.10;96.70;;;;;;4953455;28;20039;-73
2023/05/11 06:43:46;;;;;;;6.80;3.55;;;16.10;96.70;;;;;;4960190;28;20058;-74
2023/05/11 06:46:27;;;;;;;7.25;3.55;;;15.70;96.70;;;;;;4965882;28;20049;-73
2023/05/11 06:48:56;;;;;;;7.35;3.03;;;15.90;96.70;;;;;;4963951;28;20055;-73
2023/05/11 06:51:24;;;;;;;5.03;2.88;;;16.00;96.70;;;;;;4964341;28;20072;-74
2023/05/11 06:53:57;;;;;;;6.25;2.63;;;16.10;96.70;;;;;;4963501;28;20046;-73
2023/05/11 06:56:26;;;;;;;5.85;2.88;;;16.20;96.70;;;;;;4963243;28;20082;-74
2023/05/11 06:58:54;;;;;;;5.82;3.00;;;16.20;96.70;;;;;;4963953;28;20524;-74
2023/05/11 07:01:22;;;;;;;4.85;2.65;;;16.00;96.70;;;;;;4965379;28;20097;-74
2023/05/11 07:03:53;;;;;;;3.05;1.85;;;16.00;96.70;;;;;;4963643;28;20117;-74
2023/05/11 07:06:21;;;;;;;5.68;1.77;;;16.20;96.70;;;;;;4962481;28;20051;-75
2023/05/11 07:08:49;;;;;;;2.50;1.55;;;16.40;96.70;;;;;;4964902;28;20075;-74
2023/05/11 07:11:20;;;;;;;3.70;1.67;;;16.40;96.70;;;;;;4965129;28;20535;-75
2023/05/11 07:13:49;;;;;;;4.97;1.75;;;16.50;96.70;;;;;;4965108;28;20053;-74
2023/05/11 07:16:17;;;;;;;1.30;0.90;;;16.60;96.70;;;;;;4965218;28;20377;-74
2023/05/11 07:18:45;;;;;;;1.63;0.80;;;16.70;96.70;;;;;;4965079;28;20061;-74
2023/05/11 07:21:13;;;;;;;1.55;0.70;;;16.60;96.70;;;;;;4962912;28;20550;-74
2023/05/11 07:23:41;;;;;;;1.00;0.80;;;16.70;96.70;;;;;;4963121;28;20055;-73
2023/05/11 07:26:09;;;;;;;1.30;0.70;;;16.80;96.70;;;;;;4965188;28;20389;-73
2023/05/11 07:28:39;;;;;;;2.13;0.85;;;16.80;96.70;;;;;;4978034;28;20531;-73
2023/05/11 07:31:07;;;;;;;1.65;1.23;;;16.80;96.70;;;;;;4963514;28;20055;-73
2023/05/11 07:33:37;;;;;;;3.30;2.47;;;16.90;96.70;;;;;;4964052;28;20470;-73
2023/05/11 07:36:05;;;;;;;3.28;2.45;;;17.00;96.70;;;;;;4965156;28;20093;-72
2023/05/11 07:38:34;;;;;;;3.92;3.03;;;17.00;96.70;;;;;;4963096;28;20042;-73
2023/05/11 07:41:03;;;;;;;8.85;6.43;;;17.00;96.70;;;;;;4964336;28;20047;-74
2023/05/11 07:43:33;;;;;;;15.77;11.18;;;17.10;96.70;;;;;;4955530;28;20050;-73
2023/05/11 07:46:03;;;;;;;13.48;10.45;;;17.20;96.70;;;;;;4963263;28;20038;-74
2023/05/11 07:48:31;;;;;;;13.55;8.93;;;17.30;96.70;;;;;;4956881;28;20050;-74
2023/05/11 07:51:00;;;;;;;14.35;11.00;;;17.30;96.70;;;;;;4964637;28;20046;-74
2023/05/11 07:53:28;;;;;;;13.57;9.63;;;17.40;96.70;;;;;;4946837;28;20133;-74
2023/05/11 07:55:58;;;;;;;17.30;10.35;;;17.50;96.70;;;;;;4962567;28;20200;-73
2023/05/11 07:58:26;;;;;;;14.95;9.48;;;17.60;96.70;;;;;;4963109;28;20061;-74
2023/05/11 08:00:55;;;;;;;8.13;5.97;;;17.60;96.70;;;;;;4963680;28;20429;-74
2023/05/11 08:03:24;;;;;;;8.30;6.57;;;17.70;96.70;;;;;;4964501;28;20050;-74
2023/05/11 08:05:52;;;;;;;8.07;6.22;;;17.60;96.70;;;;;;4959692;28;20042;-74
2023/05/11 08:08:21;;;;;;;8.02;5.15;;;17.70;96.70;;;;;;4963727;28;20137;-74
2023/05/11 08:10:48;;;;;;;8.00;5.95;;;17.60;96.70;;;;;;4964590;28;20053;-73
2023/05/11 08:13:17;;;;;;;8.57;6.03;;;17.70;96.70;;;;;;4963609;28;20047;-74
2023/05/11 08:15:45;;;;;;;8.20;6.00;;;17.80;96.70;;;;;;4964258;28;20047;-74
2023/05/11 08:18:13;;;;;;;8.50;5.88;;;17.90;96.70;;;;;;4971267;28;20467;-73
2023/05/11 08:20:42;;;;;;;7.72;5.05;;;18.00;96.70;;;;;;4961950;28;20067;-74
2023/05/11 08:23:16;;;;;;;9.15;6.25;;;18.10;96.70;;;;;;4961806;28;20047;-74
2023/05/11 08:25:50;;;;;;;8.60;5.57;;;18.20;96.70;;;;;;4962737;28;20054;-73
2023/05/11 08:28:19;;;;;;;6.63;4.65;;;18.20;96.70;;;;;;4964264;28;20062;-74
2023/05/11 08:30:54;;;;;;;5.07;3.22;;;18.30;96.70;;;;;;4964357;28;20046;-73
2023/05/11 08:33:22;;;;;;;5.00;2.58;;;18.40;96.70;;;;;;4964417;28;20413;-73
2023/05/11 08:35:57;;;;;;;4.60;3.17;;;18.30;96.70;;;;;;4963574;28;20050;-74
2023/05/11 08:38:25;;;;;;;4.25;2.20;;;18.40;96.70;;;;;;4961768;28;20046;-73
2023/05/11 08:40:54;;;;;;;2.20;1.60;;;18.40;96.70;;;;;;4946847;28;20087;-73
2023/05/11 08:43:25;;;;;;;3.58;1.30;;;18.40;96.70;;;;;;4963508;28;20046;-74
2023/05/11 08:45:59;;;;;;;1.40;0.45;;;18.50;96.70;;;;;;4962014;28;20119;-73
2023/05/11 08:48:29;;;;;;;1.33;0.63;;;18.60;96.70;;;;;;4963320;28;20886;-74
2023/05/11 08:51:01;;;;;;;1.77;0.50;;;18.60;96.70;;;;;;4965465;28;20513;-73
2023/05/11 08:53:29;;;;;;;3.97;1.63;;;18.70;96.70;;;;;;4962675;28;20047;-75
2023/05/11 08:56:00;;;;;;;0.40;0.20;;;18.80;96.70;;;;;;4964000;28;20049;-73
2023/05/11 08:58:29;;;;;;;2.65;0.30;;;18.90;96.70;;;;;;4962386;28;20046;-73
2023/05/11 09:00:59;;;;;;;1.77;0.20;;;19.00;96.70;;;;;;4962815;28;20107;-73
2023/05/11 09:03:29;;;;;;;0.93;0.50;;;19.00;96.70;;;;;;4956135;28;20050;-73
2023/05/11 09:06:01;;;;;;;0.95;0.50;;;19.10;96.70;;;;;;4963655;28;20070;-73
2023/05/11 09:08:30;;;;;;;0.77;0.55;;;18.90;96.70;;;;;;4963273;28;20043;-73
2023/05/11 09:10:59;;;;;;;1.45;0.45;;;19.00;96.70;;;;;;4963460;28;20074;-73
2023/05/11 09:13:29;;;;;;;0.25;0.10;;;19.10;96.70;;;;;;4962742;28;20412;-73
2023/05/11 09:15:58;;;;;;;0.68;0.38;;;19.10;96.70;;;;;;4953613;28;20043;-73
2023/05/11 09:18:27;;;;;;;1.85;0.20;;;19.10;96.70;;;;;;4945000;28;20050;-73
2023/05/11 09:20:56;;;;;;;0.55;0.20;;;19.20;96.70;;;;;;4963931;28;20291;-74
2023/05/11 09:23:26;;;;;;;1.13;0.38;;;19.40;96.70;;;;;;4961644;28;20054;-73
2023/05/11 09:25:54;;;;;;;1.63;0.30;;;19.60;96.70;;;;;;4952997;28;20050;-74
2023/05/11 09:28:25;;;;;;;0.30;0.10;;;19.50;96.70;;;;;;4956378;28;20039;-73
2023/05/11 09:30:54;;;;;;;0.60;0.38;;;19.40;96.70;;;;;;4962872;28;20046;-74
2023/05/11 09:33:23;;;;;;;0.50;0.10;;;19.40;96.70;;;;;;4965232;28;20050;-73
2023/05/11 09:35:52;;;;;;;0.50;0.10;;;19.50;96.70;;;;;;4949145;28;20142;-74
2023/05/11 09:38:24;;;;;;;0.35;0.20;;;19.70;96.70;;;;;;4958409;28;20043;-74
2023/05/11 09:40:55;;;;;;;1.10;0.25;;;20.00;96.70;;;;;;4957626;28;20058;-73
2023/05/11 09:43:25;;;;;;;0.28;0.08;;;20.20;96.70;;;;;;4966471;28;20051;-74
2023/05/11 09:45:54;;;;;;;0.10;0.00;;;20.10;96.70;;;;;;4966344;28;20047;-74
2023/05/11 09:48:28;;;;;;;0.35;0.03;;;20.10;96.70;;;;;;4963800;28;20039;-74
2023/05/11 09:51:02;;;;;;;0.82;0.10;;;20.00;96.70;;;;;;4966714;28;20051;-73
2023/05/11 09:53:36;;;;;;;0.10;0.10;;;20.20;96.70;;;;;;4966765;28;20050;-73
2023/05/11 09:56:06;;;;;;;1.67;0.13;;;20.40;96.70;;;;;;4965564;28;20046;-73
2023/05/11 09:58:46;;;;;;;1.55;0.10;;;20.40;96.70;;;;;;4966521;28;20046;-73
2023/05/11 10:01:16;;;;;;;1.20;0.10;;;20.40;96.70;;;;;;4941319;28;20394;-73
2023/05/11 10:03:49;;;;;;;1.75;0.10;;;20.40;96.70;;;;;;4966855;28;20109;-73
2023/05/11 10:06:18;;;;;;;0.22;0.10;;;20.30;96.70;;;;;;4963924;28;20390;-73
2023/05/11 10:08:48;;;;;;;0.20;0.10;;;20.20;96.70;;;;;;4963560;28;20489;-74
2023/05/11 10:11:21;;;;;;;1.00;0.10;;;20.00;96.70;;;;;;4963645;28;20053;-73
2023/05/11 10:13:52;;;;;;;;;;;19.90;96.70;;;;;;4965339;28;20065;-73
2023/05/11 10:16:21;;;;;;;3.22;0.20;;;19.70;96.70;;;;;;4964665;28;20596;-73
2023/05/11 10:18:51;;;;;;;0.57;0.20;;;19.60;96.70;;;;;;4966097;28;20055;-73
2023/05/11 10:21:20;;;;;;;0.52;0.10;;;19.60;96.70;;;;;;4966011;28;20054;-73
2023/05/11 10:23:49;;;;;;;1.38;0.20;;;19.60;96.70;;;;;;4964412;28;20055;-74
2023/05/11 10:26:19;;;;;;;2.67;0.20;;;19.60;96.70;;;;;;4956015;28;20050;-73
2023/05/11 10:28:48;;;;;;;1.98;0.50;;;19.70;96.70;;;;;;4961434;28;20054;-73
2023/05/11 10:31:22;;;;;;;2.40;0.20;;;19.80;96.70;;;;;;4964602;28;20057;-73
2023/05/11 10:33:52;;;;;;;0.00;0.00;;;19.80;96.70;;;;;;4966319;28;20318;-73
2023/05/11 10:36:24;;;;;;;0.47;0.10;;;19.80;96.70;;;;;;4961966;28;20039;-73
2023/05/11 10:38:53;;;;;;;0.25;0.10;;;19.80;96.70;;;;;;4962208;28;20105;-75
2023/05/11 10:41:38;;;;;;;0.35;0.15;;;19.80;96.70;;;;;;4955757;28;20713;-73
2023/05/11 10:44:30;;;;;;;1.48;0.10;;;19.80;96.70;;;;;;4956095;28;20106;-73
2023/05/11 10:47:14;;;;;;;0.80;0.10;;;19.80;96.70;;;;;;4955182;28;20061;-73
2023/05/11 10:50:03;;;;;;;0.52;0.10;;;19.70;96.70;;;;;;4953811;28;20545;-74
2023/05/11 10:52:49;;;;;;;0.32;0.10;;;19.60;96.70;;;;;;4963240;28;20054;-73
2023/05/11 10:55:26;;;;;;;1.75;0.20;;;19.60;96.70;;;;;;4963360;28;20129;-71
2023/05/11 10:58:06;;;;;;;1.15;0.10;;;19.50;96.70;;;;;;4978996;28;20416;-72
2023/05/11 11:01:23;;;;;;;0.45;0.10;;;19.40;96.70;;;;;;4979889;28;20050;-72
2023/05/11 11:04:00;;;;;;;0.60;0.20;;;19.30;96.70;;;;;;4964546;28;20118;-72
2023/05/11 11:06:31;;;;;;;1.35;0.20;;;19.20;96.70;;;;;;4965430;28;20043;-73
2023/05/11 11:09:02;;;;;;;1.05;0.35;;;19.10;96.70;;;;;;4962037;28;20101;-72
2023/05/11 11:11:33;;;;;;;4.55;0.52;;;19.00;96.70;;;;;;4963622;28;20066;-73
2023/05/11 11:14:04;;;;;;;3.65;0.47;;;18.60;96.70;;;;;;4964153;28;20055;-72
2023/05/11 11:16:35;;;;;;;2.20;0.50;;;18.40;96.70;;;;;;4945810;28;20059;-72
2023/05/11 11:19:36;;;;;;;3.97;0.60;;;18.30;96.70;;;;;;4961196;28;20110;-73
2023/05/11 11:22:05;;;;;;;1.75;0.30;;;18.30;96.70;;;;;;4962322;28;20050;-73
2023/05/11 11:24:45;;;;;;;4.00;0.50;;;18.30;96.70;;;;;;4962105;28;20117;-71
2023/05/11 11:27:14;;;;;;;1.95;0.22;;;18.40;96.70;;;;;;4961487;28;20039;-72
2023/05/11 11:30:17;;;;;;;1.38;0.40;;;18.60;96.70;;;;;;4963845;28;20043;-72
2023/05/11 11:32:47;;;;;;;0.77;0.30;;;18.70;96.70;;;;;;4959995;28;20050;-74
2023/05/11 11:35:47;;;;;;;4.30;0.40;;;18.70;96.70;;;;;;4962360;28;20047;-73
2023/05/11 11:38:18;;;;;;;0.25;0.20;;;18.80;96.70;;;;;;4957000;28;20846;-74
2023/05/11 11:40:51;;;;;;;1.30;0.30;;;19.10;96.70;;;;;;4958602;28;20051;-74
2023/05/11 11:43:22;;;;;;;0.63;0.40;;;19.40;96.70;;;;;;4958233;28;20053;-74
2023/05/11 11:45:53;;;;;;;1.40;0.40;;;19.80;96.70;;;;;;4975875;28;20042;-74
2023/05/11 11:48:28;;;;;;;1.35;0.20;;;20.00;96.70;;;;;;4945864;28;20066;-74
2023/05/11 11:51:03;;;;;;;1.30;0.22;;;20.30;96.70;;;;;;4977088;28;20085;-74
2023/05/11 11:54:05;;;;;;;0.17;0.08;;;20.60;96.70;;;;;;4961475;28;20047;-73
2023/05/11 11:56:44;;;;;;;0.40;0.10;;;21.00;96.70;;;;;;4971638;28;20579;-74
2023/05/11 11:59:17;;;;;;;1.13;0.20;;;21.30;96.70;;;;;;4962060;28;20046;-72
2023/05/11 12:01:51;;;;;;;1.13;0.28;;;21.30;96.70;;;;;;4961872;28;20043;-72
2023/05/11 12:04:39;;;;;;;0.70;0.20;;;21.40;96.70;;;;;;4959294;28;20070;-72
2023/05/11 12:07:09;;;;;;;1.17;0.20;;;21.50;96.70;;;;;;4962071;28;20078;-72
2023/05/11 12:09:38;;;;;;;1.20;0.45;;;21.50;96.70;;;;;;4960681;28;20039;-73
2023/05/11 12:12:08;;;;;;;0.60;0.17;;;21.70;96.70;;;;;;4957539;28;20043;-72
2023/05/11 12:14:39;;;;;;;0.68;0.35;;;21.90;96.70;;;;;;4961400;28;20047;-72
2023/05/11 12:17:15;;;;;;;1.70;0.30;;;21.80;96.70;;;;;;4959596;28;20183;-72
2023/05/11 12:19:44;;;;;;;0.50;0.20;;;22.10;96.70;;;;;;4959004;28;20043;-73
2023/05/11 12:22:15;;;;;;;1.10;0.30;;;22.30;96.70;;;;;;4961025;28;20286;-73
2023/05/11 12:24:43;;;;;;;0.55;0.20;;;22.20;96.70;;;;;;4961151;28;20466;-73
2023/05/11 12:27:13;;;;;;;1.42;0.30;;;22.30;96.70;;;;;;4960203;28;20042;-73
2023/05/11 12:29:44;;;;;;;0.88;0.30;;;22.00;96.70;;;;;;4960743;28;20043;-73
2023/05/11 12:32:24;;;;;;;0.32;0.15;;;22.30;96.70;;;;;;4962772;28;20078;-74
2023/05/11 12:35:00;;;;;;;1.08;0.32;;;22.20;96.70;;;;;;4955379;28;20062;-75
2023/05/11 12:37:30;;;;;;;1.88;0.20;;;22.40;96.70;;;;;;4962453;28;20535;-74
2023/05/11 12:39:59;;;;;;;0.77;0.25;;;22.40;96.70;;;;;;4962035;28;20074;-73
2023/05/11 12:42:28;;;;;;;0.77;0.30;;;22.70;96.70;;;;;;4962441;28;20050;-74
2023/05/11 12:44:57;;;;;;;1.98;0.30;;;22.60;96.70;;;;;;4963329;28;20133;-74
2023/05/11 12:47:28;;;;;;;1.02;0.20;;;22.30;96.70;;;;;;4962002;28;20109;-73
2023/05/11 12:49:57;;;;;;;1.10;0.20;;;22.00;96.70;;;;;;4962142;28;20061;-74
2023/05/11 12:52:25;;;;;;;0.73;0.20;;;22.50;96.70;;;;;;4960308;28;20588;-74
2023/05/11 12:54:58;;;;;;;0.43;0.10;;;22.70;96.70;;;;;;4959980;28;20050;-73
2023/05/11 12:57:29;;;;;;;0.73;0.20;;;22.90;96.70;;;;;;4959516;28;20053;-74
2023/05/11 13:00:10;;;;;;;0.80;0.30;;;22.80;96.70;;;;;;4962805;28;20035;-75
2023/05/11 13:02:49;;;;;;;0.85;0.20;;;22.90;96.70;;;;;;4955210;28;20058;-73
2023/05/11 13:05:22;;;;;;;0.45;0.20;;;22.90;96.70;;;;;;4972661;28;20142;-73
2023/05/11 13:07:57;;;;;;;0.50;0.10;;;23.00;96.70;;;;;;4964165;28;20505;-73
2023/05/11 13:10:26;;;;;;;0.22;0.10;;;23.00;96.70;;;;;;4965467;28;20396;-73
2023/05/11 13:12:55;;;;;;;0.45;0.10;;;23.00;96.70;;;;;;4967616;28;20047;-73
2023/05/11 13:15:24;;;;;;;1.17;0.15;;;23.30;96.70;;;;;;4966310;28;20047;-73
2023/05/11 13:17:59;;;;;;;1.08;0.20;;;23.60;96.70;;;;;;4957380;28;20058;-73
2023/05/11 13:20:28;;;;;;;1.33;0.20;;;23.60;96.70;;;;;;4967541;28;20445;-73
2023/05/11 13:23:05;;;;;;;1.05;0.13;;;23.90;96.70;;;;;;4966621;28;20050;-73
2023/05/11 13:25:33;;;;;;;;;;;24.00;96.70;;;;;;4967425;28;20057;-73
2023/05/11 13:28:02;;;;;;;1.70;0.20;;;24.00;96.70;;;;;;4967463;28;20307;-73
2023/05/11 13:30:31;;;;;;;0.52;0.20;;;23.70;96.70;;;;;;4965316;28;20522;-73
2023/05/11 13:33:03;;;;;;;0.98;0.20;;;23.00;96.70;;;;;;4965979;28;20142;-72
2023/05/11 13:35:36;;;;;;;4.90;0.25;;;23.40;96.70;;;;;;4957285;28;20050;-73
2023/05/11 13:38:05;;;;;;;0.63;0.20;;;23.10;96.70;;;;;;4965388;28;20121;-74
2023/05/11 13:40:34;;;;;;;0.47;0.10;;;22.60;96.70;;;;;;4956849;28;20050;-73
2023/05/11 13:43:03;;;;;;;1.73;0.20;;;22.30;96.70;;;;;;4966489;28;20051;-73
2023/05/11 13:45:31;;;;;;;2.05;0.30;;;22.00;96.70;;;;;;4964202;28;20045;-73
2023/05/11 13:48:00;;;;;;;0.55;0.30;;;22.10;96.70;;;;;;4963947;28;20125;-73
2023/05/11 13:50:30;;;;;;;0.98;0.10;;;22.80;96.70;;;;;;4958143;28;20047;-73
2023/05/11 13:52:59;;;;;;;1.23;0.10;;;23.20;96.70;;;;;;4948281;28;20053;-73
2023/05/11 13:55:28;;;;;;;0.30;0.10;;;23.60;96.70;;;;;;4963732;28;20094;-73
2023/05/11 13:57:57;;;;;;;0.22;0.10;;;23.90;96.70;;;;;;4965184;28;20076;-73
2023/05/11 14:00:26;;;;;;;0.43;0.10;;;24.10;96.70;;;;;;4966492;28;20488;-72
2023/05/11 14:02:54;;;;;;;2.60;0.20;;;24.00;96.70;;;;;;4962869;28;20053;-73
2023/05/11 14:05:23;;;;;;;0.10;0.08;;;24.20;96.70;;;;;;4963963;28;20073;-73
2023/05/11 14:07:53;;;;;;;1.08;0.20;;;24.50;96.70;;;;;;4964849;28;20082;-73
2023/05/11 14:10:23;;;;;;;0.52;0.20;;;23.80;96.70;;;;;;4966735;28;20078;-73
2023/05/11 14:12:52;;;;;;;0.98;0.20;;;23.30;96.70;;;;;;4965340;28;20460;-74
2023/05/11 14:15:20;;;;;;;0.63;0.20;;;22.80;96.70;;;;;;4966749;28;20057;-73
2023/05/11 14:17:49;;;;;;;2.50;0.20;;;23.10;96.70;;;;;;4966345;28;20617;-73
2023/05/11 14:20:17;;;;;;;4.05;0.20;;;23.20;96.70;;;;;;4964357;28;20057;-73
2023/05/11 14:22:46;;;;;;;1.25;0.70;;;23.20;96.70;;;;;;4965508;28;20081;-74
2023/05/11 14:25:16;;;;;;;2.45;0.28;;;22.60;96.70;;;;;;4965438;28;20070;-73
2023/05/11 14:27:44;;;;;;;0.38;0.20;;;22.20;96.70;;;;;;4964060;28;20461;-73
2023/05/11 14:30:13;;;;;;;1.45;0.10;;;22.10;96.70;;;;;;4963995;28;20654;-73
2023/05/11 14:32:42;;;;;;;1.58;0.50;;;22.10;96.70;;;;;;4965883;28;20121;-73
2023/05/11 14:35:11;;;;;;;0.50;0.10;;;22.30;96.70;;;;;;4964589;28;20051;-73
2023/05/11 14:37:39;;;;;;;1.10;0.10;;;22.40;96.70;;;;;;4964749;28;20109;-73
2023/05/11 14:40:08;;;;;;;0.43;0.20;;;22.40;96.70;;;;;;4965482;28;20038;-73
2023/05/11 14:42:39;;;;;;;0.65;0.10;;;23.30;96.70;;;;;;4963776;28;20070;-73
2023/05/11 14:45:08;;;;;;;0.35;0.00;;;24.60;96.70;;;;;;4955996;28;20043;-73
2023/05/11 14:47:36;;;;;;;1.45;0.10;;;25.10;96.70;;;;;;4948333;28;20055;-74
2023/05/11 14:50:06;;;;;;;0.20;0.10;;;25.70;96.70;;;;;;4963932;28;20042;-73
2023/05/11 14:52:35;;;;;;;2.20;0.20;;;25.40;96.70;;;;;;4965478;28;20117;-73
2023/05/11 14:55:04;;;;;;;0.40;0.10;;;24.30;96.70;;;;;;4964900;28;20532;-73
2023/05/11 14:57:32;;;;;;;0.25;0.08;;;25.20;96.70;;;;;;4963499;28;20082;-73
2023/05/11 15:00:03;;;;;;;0.57;0.10;;;25.60;96.70;;;;;;4955041;28;20608;-73
2023/05/11 15:02:32;;;;;;;0.98;0.20;;;26.00;96.70;;;;;;4963091;28;20046;-73
2023/05/11 15:05:00;;;;;;;0.73;0.13;;;25.90;96.70;;;;;;4965406;28;20050;-73
2023/05/11 15:07:29;;;;;;;1.10;0.20;;;26.20;96.70;;;;;;4964152;28;20042;-73
2023/05/11 15:10:00;;;;;;;0.40;0.13;;;26.40;96.70;;;;;;4964888;28;20043;-73
2023/05/11 15:12:29;;;;;;;0.28;0.10;;;26.40;96.70;;;;;;4963830;28;20054;-73
2023/05/11 15:14:57;;;;;;;1.75;0.10;;;26.40;96.70;;;;;;4965011;28;20050;-73
2023/05/11 15:17:27;;;;;;;2.55;0.20;;;25.80;96.70;;;;;;4961908;28;20409;-74
2023/05/11 15:19:56;;;;;;;0.90;0.22;;;26.40;96.70;;;;;;4964856;28;20130;-73